sensor_id;sensor_type;location;lat;lon;timestamp;pressure;altitude;pressure_sealevel;temperature;humidity
28027;BME280;15344;52.342;-1.290;2024-01-11T00:01:32;101997.63;;;4.56;94.23
28027;BME280;15344;52.342;-1.290;2024-01-11T00:03:57;101997.56;;;5.59;88.13
28027;BME280;15344;52.342;-1.290;2024-01-11T00:06:23;101998.29;;;5.50;88.38
28027;BME280;15344;52.342;-1.290;2024-01-11T00:08:49;102007.04;;;5.11;90.45
28027;BME280;15344;52.342;-1.290;2024-01-11T00:11:14;102004.45;;;5.79;87.24
28027;BME280;15344;52.342;-1.290;2024-01-11T00:13:40;102001.15;;;5.48;88.36
28027;BME280;15344;52.342;-1.290;2024-01-11T00:16:06;102003.20;;;5.68;86.79
28027;BME280;15344;52.342;-1.290;2024-01-11T00:18:31;102003.46;;;5.35;89.89
28027;BME280;15344;52.342;-1.290;2024-01-11T00:20:57;102004.13;;;4.78;92.24
28027;BME280;15344;52.342;-1.290;2024-01-11T00:23:22;102000.46;;;4.32;94.00
28027;BME280;15344;52.342;-1.290;2024-01-11T00:25:48;101998.43;;;5.05;90.67
28027;BME280;15344;52.342;-1.290;2024-01-11T00:28:14;102003.15;;;4.93;96.23
28027;BME280;15344;52.342;-1.290;2024-01-11T00:30:39;102004.60;;;4.56;95.14
28027;BME280;15344;52.342;-1.290;2024-01-11T00:33:05;102009.17;;;4.09;97.57
28027;BME280;15344;52.342;-1.290;2024-01-11T00:35:31;102004.68;;;5.02;92.27
28027;BME280;15344;52.342;-1.290;2024-01-11T00:37:56;102007.58;;;5.31;91.92
28027;BME280;15344;52.342;-1.290;2024-01-11T00:40:22;102009.36;;;5.36;90.22
28027;BME280;15344;52.342;-1.290;2024-01-11T00:42:48;102011.79;;;3.99;96.05
28027;BME280;15344;52.342;-1.290;2024-01-11T00:45:13;102018.13;;;3.94;100.00
28027;BME280;15344;52.342;-1.290;2024-01-11T00:47:39;102011.78;;;4.12;99.79
28027;BME280;15344;52.342;-1.290;2024-01-11T00:50:05;102011.82;;;3.94;98.61
28027;BME280;15344;52.342;-1.290;2024-01-11T00:52:30;102008.49;;;4.51;98.41
28027;BME280;15344;52.342;-1.290;2024-01-11T00:54:56;102012.22;;;4.91;93.30
28027;BME280;15344;52.342;-1.290;2024-01-11T00:57:21;102011.26;;;4.24;97.75
28027;BME280;15344;52.342;-1.290;2024-01-11T00:59:47;102013.88;;;4.96;94.84
28027;BME280;15344;52.342;-1.290;2024-01-11T01:02:13;102022.31;;;3.88;98.93
28027;BME280;15344;52.342;-1.290;2024-01-11T01:04:39;102028.96;;;4.10;99.02
28027;BME280;15344;52.342;-1.290;2024-01-11T01:07:04;102027.06;;;4.28;99.34
28027;BME280;15344;52.342;-1.290;2024-01-11T01:09:30;102027.43;;;3.97;98.49
28027;BME280;15344;52.342;-1.290;2024-01-11T01:11:55;102029.93;;;4.45;97.41
28027;BME280;15344;52.342;-1.290;2024-01-11T01:14:21;102028.72;;;4.30;98.89
28027;BME280;15344;52.342;-1.290;2024-01-11T01:16:47;102032.75;;;3.57;100.00
28027;BME280;15344;52.342;-1.290;2024-01-11T01:19:12;102028.58;;;4.41;99.13
28027;BME280;15344;52.342;-1.290;2024-01-11T01:21:38;102030.46;;;4.98;95.88
28027;BME280;15344;52.342;-1.290;2024-01-11T01:24:04;102032.65;;;3.96;100.00
28027;BME280;15344;52.342;-1.290;2024-01-11T01:26:29;102030.75;;;5.22;93.40
28027;BME280;15344;52.342;-1.290;2024-01-11T01:28:55;102031.41;;;4.50;95.61
28027;BME280;15344;52.342;-1.290;2024-01-11T01:31:21;102038.69;;;3.75;100.00
28027;BME280;15344;52.342;-1.290;2024-01-11T01:33:46;102039.92;;;3.87;100.00
28027;BME280;15344;52.342;-1.290;2024-01-11T01:36:12;102042.16;;;4.49;99.19
28027;BME280;15344;52.342;-1.290;2024-01-11T01:38:38;102048.17;;;3.50;100.00
28027;BME280;15344;52.342;-1.290;2024-01-11T01:41:03;102044.88;;;4.56;98.40
28027;BME280;15344;52.342;-1.290;2024-01-11T01:43:28;102049.46;;;4.11;100.00
28027;BME280;15344;52.342;-1.290;2024-01-11T01:45:55;102051.96;;;3.35;100.00
28027;BME280;15344;52.342;-1.290;2024-01-11T01:48:20;102054.85;;;4.34;100.00
28027;BME280;15344;52.342;-1.290;2024-01-11T01:50:46;102056.29;;;4.58;100.00
28027;BME280;15344;52.342;-1.290;2024-01-11T01:53:11;102063.40;;;4.39;98.42
28027;BME280;15344;52.342;-1.290;2024-01-11T01:55:36;102065.17;;;4.11;100.00
28027;BME280;15344;52.342;-1.290;2024-01-11T01:58:03;102064.08;;;4.12;100.00
28027;BME280;15344;52.342;-1.290;2024-01-11T02:00:27;102069.04;;;4.60;99.98
28027;BME280;15344;52.342;-1.290;2024-01-11T02:02:55;102064.22;;;5.39;97.21
28027;BME280;15344;52.342;-1.290;2024-01-11T02:05:19;102065.58;;;4.91;97.67
28027;BME280;15344;52.342;-1.290;2024-01-11T02:07:44;102072.49;;;5.64;93.14
28027;BME280;15344;52.342;-1.290;2024-01-11T02:10:10;102074.35;;;5.39;95.00
28027;BME280;15344;52.342;-1.290;2024-01-11T02:12:36;102071.10;;;5.48;92.30
28027;BME280;15344;52.342;-1.290;2024-01-11T02:15:01;102079.38;;;4.61;99.76
28027;BME280;15344;52.342;-1.290;2024-01-11T02:17:26;102075.29;;;5.29;96.30
28027;BME280;15344;52.342;-1.290;2024-01-11T02:19:52;102085.90;;;4.44;97.55
28027;BME280;15344;52.342;-1.290;2024-01-11T02:22:21;102078.46;;;4.75;94.65
28027;BME280;15344;52.342;-1.290;2024-01-11T02:24:43;102082.56;;;6.05;90.57
28027;BME280;15344;52.342;-1.290;2024-01-11T02:27:09;102083.95;;;4.91;94.25
28027;BME280;15344;52.342;-1.290;2024-01-11T02:29:34;102085.62;;;4.59;96.16
28027;BME280;15344;52.342;-1.290;2024-01-11T02:32:01;102084.26;;;5.20;95.32
28027;BME280;15344;52.342;-1.290;2024-01-11T02:34:27;102084.96;;;5.05;94.63
28027;BME280;15344;52.342;-1.290;2024-01-11T02:36:51;102090.66;;;5.31;93.75
28027;BME280;15344;52.342;-1.290;2024-01-11T02:39:17;102095.22;;;5.88;91.13
28027;BME280;15344;52.342;-1.290;2024-01-11T02:41:42;102093.98;;;5.14;93.74
28027;BME280;15344;52.342;-1.290;2024-01-11T02:44:08;102101.46;;;5.57;93.46
28027;BME280;15344;52.342;-1.290;2024-01-11T02:46:33;102098.14;;;5.10;94.68
28027;BME280;15344;52.342;-1.290;2024-01-11T02:48:59;102100.42;;;4.86;96.94
28027;BME280;15344;52.342;-1.290;2024-01-11T02:51:24;102103.70;;;4.88;96.63
28027;BME280;15344;52.342;-1.290;2024-01-11T02:53:50;102110.29;;;4.63;99.63
28027;BME280;15344;52.342;-1.290;2024-01-11T02:56:15;102112.66;;;5.04;96.00
28027;BME280;15344;52.342;-1.290;2024-01-11T02:58:41;102110.88;;;5.26;95.49
28027;BME280;15344;52.342;-1.290;2024-01-11T03:01:06;102111.20;;;4.87;96.01
28027;BME280;15344;52.342;-1.290;2024-01-11T03:03:32;102114.25;;;4.65;97.38
28027;BME280;15344;52.342;-1.290;2024-01-11T03:05:58;102111.26;;;5.35;95.11
28027;BME280;15344;52.342;-1.290;2024-01-11T03:08:23;102109.46;;;5.18;95.94
28027;BME280;15344;52.342;-1.290;2024-01-11T03:10:49;102114.09;;;4.83;95.77
28027;BME280;15344;52.342;-1.290;2024-01-11T03:13:15;102113.29;;;4.95;93.19
28027;BME280;15344;52.342;-1.290;2024-01-11T03:15:40;102111.58;;;5.24;95.15
28027;BME280;15344;52.342;-1.290;2024-01-11T03:18:06;102109.70;;;5.51;92.85
28027;BME280;15344;52.342;-1.290;2024-01-11T03:20:31;102120.62;;;4.55;99.98
28027;BME280;15344;52.342;-1.290;2024-01-11T03:22:57;102110.73;;;5.18;94.30
28027;BME280;15344;52.342;-1.290;2024-01-11T03:25:23;102108.39;;;5.45;92.14
28027;BME280;15344;52.342;-1.290;2024-01-11T03:27:48;102122.30;;;4.08;99.70
28027;BME280;15344;52.342;-1.290;2024-01-11T03:30:14;102121.16;;;4.21;99.75
28027;BME280;15344;52.342;-1.290;2024-01-11T03:32:39;102119.93;;;3.54;100.00
28027;BME280;15344;52.342;-1.290;2024-01-11T03:35:06;102121.70;;;5.00;98.04
28027;BME280;15344;52.342;-1.290;2024-01-11T03:37:30;102123.70;;;5.06;94.23
28027;BME280;15344;52.342;-1.290;2024-01-11T03:39:56;102129.40;;;5.31;93.34
28027;BME280;15344;52.342;-1.290;2024-01-11T03:42:22;102142.33;;;4.55;97.05
28027;BME280;15344;52.342;-1.290;2024-01-11T03:44:47;102133.60;;;4.90;97.20
28027;BME280;15344;52.342;-1.290;2024-01-11T03:47:13;102129.23;;;5.21;93.42
28027;BME280;15344;52.342;-1.290;2024-01-11T03:49:39;102135.37;;;4.82;95.32
28027;BME280;15344;52.342;-1.290;2024-01-11T03:52:05;102138.98;;;4.79;95.22
28027;BME280;15344;52.342;-1.290;2024-01-11T03:54:30;102147.10;;;4.32;98.74
28027;BME280;15344;52.342;-1.290;2024-01-11T03:56:55;102145.76;;;4.50;100.00
28027;BME280;15344;52.342;-1.290;2024-01-11T03:59:21;102147.60;;;4.83;97.65
28027;BME280;15344;52.342;-1.290;2024-01-11T04:01:47;102143.58;;;3.78;100.00
28027;BME280;15344;52.342;-1.290;2024-01-11T04:04:12;102145.95;;;3.31;100.00
28027;BME280;15344;52.342;-1.290;2024-01-11T04:06:38;102143.20;;;3.69;100.00
28027;BME280;15344;52.342;-1.290;2024-01-11T04:09:03;102141.99;;;3.75;100.00
28027;BME280;15344;52.342;-1.290;2024-01-11T04:11:29;102148.16;;;4.13;100.00
28027;BME280;15344;52.342;-1.290;2024-01-11T04:13:55;102145.14;;;4.00;100.00
28027;BME280;15344;52.342;-1.290;2024-01-11T04:16:20;102143.20;;;3.27;100.00
28027;BME280;15344;52.342;-1.290;2024-01-11T04:18:46;102144.92;;;3.60;100.00
28027;BME280;15344;52.342;-1.290;2024-01-11T04:21:20;102140.79;;;3.87;100.00
28027;BME280;15344;52.342;-1.290;2024-01-11T04:23:37;102146.80;;;4.52;100.00
28027;BME280;15344;52.342;-1.290;2024-01-11T04:26:03;102145.01;;;3.31;100.00
28027;BME280;15344;52.342;-1.290;2024-01-11T04:28:28;102152.63;;;2.72;100.00
28027;BME280;15344;52.342;-1.290;2024-01-11T04:30:54;102149.62;;;3.86;100.00
28027;BME280;15344;52.342;-1.290;2024-01-11T04:33:20;102152.86;;;3.32;100.00
28027;BME280;15344;52.342;-1.290;2024-01-11T04:35:45;102155.76;;;4.02;100.00
28027;BME280;15344;52.342;-1.290;2024-01-11T04:38:11;102161.33;;;3.82;100.00
28027;BME280;15344;52.342;-1.290;2024-01-11T04:40:37;102161.20;;;3.97;100.00
28027;BME280;15344;52.342;-1.290;2024-01-11T04:43:02;102160.45;;;3.44;100.00
28027;BME280;15344;52.342;-1.290;2024-01-11T04:45:28;102163.77;;;4.58;98.46
28027;BME280;15344;52.342;-1.290;2024-01-11T04:47:54;102165.06;;;4.19;100.00
28027;BME280;15344;52.342;-1.290;2024-01-11T04:50:19;102168.07;;;4.34;99.54
28027;BME280;15344;52.342;-1.290;2024-01-11T04:52:45;102168.68;;;4.22;99.71
28027;BME280;15344;52.342;-1.290;2024-01-11T04:55:10;102175.92;;;3.23;100.00
28027;BME280;15344;52.342;-1.290;2024-01-11T04:57:36;102182.01;;;3.97;99.60
28027;BME280;15344;52.342;-1.290;2024-01-11T05:00:02;102186.27;;;4.35;100.00
28027;BME280;15344;52.342;-1.290;2024-01-11T05:02:27;102187.56;;;4.32;99.85
28027;BME280;15344;52.342;-1.290;2024-01-11T05:04:53;102186.64;;;4.62;97.12
28027;BME280;15344;52.342;-1.290;2024-01-11T05:07:19;102190.49;;;4.28;100.00
28027;BME280;15344;52.342;-1.290;2024-01-11T05:09:44;102190.68;;;4.08;99.44
28027;BME280;15344;52.342;-1.290;2024-01-11T05:12:10;102196.49;;;3.04;100.00
28027;BME280;15344;52.342;-1.290;2024-01-11T05:14:35;102201.98;;;4.43;98.74
28027;BME280;15344;52.342;-1.290;2024-01-11T05:17:01;102200.86;;;4.97;95.99
28027;BME280;15344;52.342;-1.290;2024-01-11T05:19:27;102202.55;;;4.30;96.99
28027;BME280;15344;52.342;-1.290;2024-01-11T05:21:52;102199.74;;;3.74;100.00
28027;BME280;15344;52.342;-1.290;2024-01-11T05:24:18;102206.99;;;4.70;95.46
28027;BME280;15344;52.342;-1.290;2024-01-11T05:26:43;102213.94;;;4.94;92.50
28027;BME280;15344;52.342;-1.290;2024-01-11T05:29:09;102214.97;;;5.31;92.00
28027;BME280;15344;52.342;-1.290;2024-01-11T05:31:34;102216.46;;;4.51;93.85
28027;BME280;15344;52.342;-1.290;2024-01-11T05:34:00;102220.36;;;4.53;94.33
28027;BME280;15344;52.342;-1.290;2024-01-11T05:36:26;102222.88;;;3.38;100.00
28027;BME280;15344;52.342;-1.290;2024-01-11T05:38:51;102228.08;;;4.31;96.51
28027;BME280;15344;52.342;-1.290;2024-01-11T05:41:17;102230.32;;;3.96;97.34
28027;BME280;15344;52.342;-1.290;2024-01-11T05:43:43;102237.04;;;4.46;96.39
28027;BME280;15344;52.342;-1.290;2024-01-11T05:46:09;102238.62;;;5.61;93.18
28027;BME280;15344;52.342;-1.290;2024-01-11T05:48:34;102245.52;;;4.58;96.73
28027;BME280;15344;52.342;-1.290;2024-01-11T05:50:59;102242.66;;;5.11;90.75
28027;BME280;15344;52.342;-1.290;2024-01-11T05:53:25;102244.00;;;5.81;88.80
28027;BME280;15344;52.342;-1.290;2024-01-11T05:55:50;102249.81;;;4.63;92.99
28027;BME280;15344;52.342;-1.290;2024-01-11T05:58:17;102254.53;;;5.24;90.26
28027;BME280;15344;52.342;-1.290;2024-01-11T06:00:42;102254.02;;;5.80;89.67
28027;BME280;15344;52.342;-1.290;2024-01-11T06:03:07;102256.89;;;5.16;92.66
28027;BME280;15344;52.342;-1.290;2024-01-11T06:05:33;102254.05;;;4.23;96.70
28027;BME280;15344;52.342;-1.290;2024-01-11T06:07:59;102251.13;;;5.10;92.98
28027;BME280;15344;52.342;-1.290;2024-01-11T06:10:24;102251.98;;;4.61;95.33
28027;BME280;15344;52.342;-1.290;2024-01-11T06:12:50;102254.75;;;4.32;98.50
28027;BME280;15344;52.342;-1.290;2024-01-11T06:15:16;102261.10;;;4.19;98.96
28027;BME280;15344;52.342;-1.290;2024-01-11T06:17:41;102263.27;;;5.39;92.46
28027;BME280;15344;52.342;-1.290;2024-01-11T06:20:07;102258.92;;;3.52;100.00
28027;BME280;15344;52.342;-1.290;2024-01-11T06:22:32;102260.31;;;4.06;97.64
28027;BME280;15344;52.342;-1.290;2024-01-11T06:24:58;102256.11;;;3.59;97.67
28027;BME280;15344;52.342;-1.290;2024-01-11T06:27:23;102258.94;;;4.57;97.51
28027;BME280;15344;52.342;-1.290;2024-01-11T06:29:49;102260.66;;;3.45;100.00
28027;BME280;15344;52.342;-1.290;2024-01-11T06:32:15;102260.98;;;5.14;96.24
28027;BME280;15344;52.342;-1.290;2024-01-11T06:34:41;102260.83;;;4.65;94.40
28027;BME280;15344;52.342;-1.290;2024-01-11T06:37:06;102263.01;;;5.48;91.96
28027;BME280;15344;52.342;-1.290;2024-01-11T06:39:31;102267.70;;;5.34;91.70
28027;BME280;15344;52.342;-1.290;2024-01-11T06:41:57;102270.13;;;4.58;94.77
28027;BME280;15344;52.342;-1.290;2024-01-11T06:44:23;102271.70;;;4.60;97.05
28027;BME280;15344;52.342;-1.290;2024-01-11T06:46:48;102274.91;;;4.52;96.91
28027;BME280;15344;52.342;-1.290;2024-01-11T06:49:14;102276.73;;;4.53;95.64
28027;BME280;15344;52.342;-1.290;2024-01-11T06:51:39;102278.36;;;5.72;90.84
28027;BME280;15344;52.342;-1.290;2024-01-11T06:54:06;102281.54;;;4.83;93.04
28027;BME280;15344;52.342;-1.290;2024-01-11T06:56:31;102280.23;;;5.69;88.87
28027;BME280;15344;52.342;-1.290;2024-01-11T06:58:57;102290.41;;;4.97;93.79
28027;BME280;15344;52.342;-1.290;2024-01-11T07:01:22;102292.93;;;4.97;91.30
28027;BME280;15344;52.342;-1.290;2024-01-11T07:03:48;102295.73;;;6.21;87.73
28027;BME280;15344;52.342;-1.290;2024-01-11T07:06:13;102298.51;;;5.49;89.83
28027;BME280;15344;52.342;-1.290;2024-01-11T07:08:39;102295.99;;;6.22;85.61
28027;BME280;15344;52.342;-1.290;2024-01-11T07:11:04;102301.31;;;5.49;88.63
28027;BME280;15344;52.342;-1.290;2024-01-11T07:13:30;102297.79;;;6.16;84.47
28027;BME280;15344;52.342;-1.290;2024-01-11T07:15:55;102302.75;;;5.78;86.97
28027;BME280;15344;52.342;-1.290;2024-01-11T07:18:21;102303.76;;;5.26;90.01
28027;BME280;15344;52.342;-1.290;2024-01-11T07:20:47;102300.14;;;6.37;84.36
28027;BME280;15344;52.342;-1.290;2024-01-11T07:23:12;102300.25;;;6.80;84.41
28027;BME280;15344;52.342;-1.290;2024-01-11T07:25:38;102305.09;;;6.64;82.78
28027;BME280;15344;52.342;-1.290;2024-01-11T07:28:04;102302.31;;;5.93;85.72
28027;BME280;15344;52.342;-1.290;2024-01-11T07:30:29;102308.70;;;6.30;86.02
28027;BME280;15344;52.342;-1.290;2024-01-11T07:32:54;102308.76;;;5.92;84.67
28027;BME280;15344;52.342;-1.290;2024-01-11T07:35:20;102315.48;;;5.16;89.33
28027;BME280;15344;52.342;-1.290;2024-01-11T07:37:46;102311.13;;;5.83;86.07
28027;BME280;15344;52.342;-1.290;2024-01-11T07:40:11;102320.44;;;5.61;88.61
28027;BME280;15344;52.342;-1.290;2024-01-11T07:42:37;102316.78;;;5.70;89.41
28027;BME280;15344;52.342;-1.290;2024-01-11T07:45:02;102318.09;;;5.25;91.68
28027;BME280;15344;52.342;-1.290;2024-01-11T07:47:28;102315.49;;;4.97;94.52
28027;BME280;15344;52.342;-1.290;2024-01-11T07:49:53;102320.14;;;4.50;97.70
28027;BME280;15344;52.342;-1.290;2024-01-11T07:52:19;102324.01;;;5.59;90.28
28027;BME280;15344;52.342;-1.290;2024-01-11T07:54:44;102322.71;;;5.18;95.12
28027;BME280;15344;52.342;-1.290;2024-01-11T07:57:10;102327.88;;;4.60;97.42
28027;BME280;15344;52.342;-1.290;2024-01-11T07:59:36;102330.40;;;4.47;99.28
28027;BME280;15344;52.342;-1.290;2024-01-11T08:02:02;102337.83;;;4.97;94.85
28027;BME280;15344;52.342;-1.290;2024-01-11T08:04:27;102342.62;;;5.30;94.42
28027;BME280;15344;52.342;-1.290;2024-01-11T08:06:53;102335.71;;;4.75;95.02
28027;BME280;15344;52.342;-1.290;2024-01-11T08:09:18;102346.07;;;5.88;91.74
28027;BME280;15344;52.342;-1.290;2024-01-11T08:11:44;102350.92;;;4.79;95.60
28027;BME280;15344;52.342;-1.290;2024-01-11T08:14:09;102356.40;;;4.04;99.21
28027;BME280;15344;52.342;-1.290;2024-01-11T08:16:35;102369.73;;;5.07;94.81
28027;BME280;15344;52.342;-1.290;2024-01-11T08:19:00;102378.45;;;5.32;94.92
28027;BME280;15344;52.342;-1.290;2024-01-11T08:21:26;102381.21;;;4.18;97.02
28027;BME280;15344;52.342;-1.290;2024-01-11T08:23:51;102385.69;;;5.85;90.99
28027;BME280;15344;52.342;-1.290;2024-01-11T08:26:18;102384.61;;;3.99;96.13
28027;BME280;15344;52.342;-1.290;2024-01-11T08:28:43;102389.11;;;5.03;94.90
28027;BME280;15344;52.342;-1.290;2024-01-11T08:31:09;102395.60;;;2.97;100.00
28027;BME280;15344;52.342;-1.290;2024-01-11T08:33:34;102392.31;;;4.18;99.63
28027;BME280;15344;52.342;-1.290;2024-01-11T08:36:00;102394.22;;;4.75;99.09
28027;BME280;15344;52.342;-1.290;2024-01-11T08:38:25;102393.54;;;4.21;100.00
28027;BME280;15344;52.342;-1.290;2024-01-11T08:40:51;102393.53;;;4.18;99.69
28027;BME280;15344;52.342;-1.290;2024-01-11T08:43:17;102392.93;;;4.39;97.80
28027;BME280;15344;52.342;-1.290;2024-01-11T08:45:42;102398.05;;;5.26;94.65
28027;BME280;15344;52.342;-1.290;2024-01-11T08:48:07;102396.03;;;4.97;93.92
28027;BME280;15344;52.342;-1.290;2024-01-11T08:50:33;102400.61;;;5.45;94.12
28027;BME280;15344;52.342;-1.290;2024-01-11T08:52:59;102406.56;;;4.00;96.52
28027;BME280;15344;52.342;-1.290;2024-01-11T08:55:24;102410.31;;;4.42;98.29
28027;BME280;15344;52.342;-1.290;2024-01-11T08:57:50;102408.70;;;4.05;100.00
28027;BME280;15344;52.342;-1.290;2024-01-11T09:00:16;102411.56;;;4.50;98.39
28027;BME280;15344;52.342;-1.290;2024-01-11T09:02:41;102410.00;;;4.22;98.83
28027;BME280;15344;52.342;-1.290;2024-01-11T09:05:07;102411.93;;;5.47;94.57
28027;BME280;15344;52.342;-1.290;2024-01-11T09:07:32;102412.17;;;5.43;92.47
28027;BME280;15344;52.342;-1.290;2024-01-11T09:09:58;102414.48;;;4.71;96.10
28027;BME280;15344;52.342;-1.290;2024-01-11T09:12:24;102423.48;;;5.93;92.29
28027;BME280;15344;52.342;-1.290;2024-01-11T09:14:49;102424.28;;;6.03;89.37
28027;BME280;15344;52.342;-1.290;2024-01-11T09:17:15;102419.27;;;5.23;91.45
28027;BME280;15344;52.342;-1.290;2024-01-11T09:19:40;102418.84;;;5.37;93.97
28027;BME280;15344;52.342;-1.290;2024-01-11T09:22:06;102420.15;;;4.79;94.82
28027;BME280;15344;52.342;-1.290;2024-01-11T09:24:31;102417.29;;;5.56;92.12
28027;BME280;15344;52.342;-1.290;2024-01-11T09:26:57;102417.08;;;5.13;94.18
28027;BME280;15344;52.342;-1.290;2024-01-11T09:29:22;102415.58;;;5.36;93.52
28027;BME280;15344;52.342;-1.290;2024-01-11T09:31:48;102421.56;;;5.38;91.05
28027;BME280;15344;52.342;-1.290;2024-01-11T09:34:14;102424.86;;;5.45;93.40
28027;BME280;15344;52.342;-1.290;2024-01-11T09:36:39;102420.29;;;4.97;93.07
28027;BME280;15344;52.342;-1.290;2024-01-11T09:39:05;102429.28;;;5.91;91.54
28027;BME280;15344;52.342;-1.290;2024-01-11T09:41:31;102434.86;;;6.67;87.54
28027;BME280;15344;52.342;-1.290;2024-01-11T09:43:57;102439.23;;;6.31;87.85
28027;BME280;15344;52.342;-1.290;2024-01-11T09:46:22;102444.33;;;4.75;99.60
28027;BME280;15344;52.342;-1.290;2024-01-11T09:48:48;102449.34;;;5.77;92.27
28027;BME280;15344;52.342;-1.290;2024-01-11T09:51:13;102455.54;;;5.67;92.31
28027;BME280;15344;52.342;-1.290;2024-01-11T09:53:38;102460.36;;;6.00;90.93
28027;BME280;15344;52.342;-1.290;2024-01-11T09:56:07;102471.14;;;5.83;91.50
28027;BME280;15344;52.342;-1.290;2024-01-11T09:58:29;102472.20;;;5.69;92.06
28027;BME280;15344;52.342;-1.290;2024-01-11T10:00:56;102474.75;;;6.84;85.73
28027;BME280;15344;52.342;-1.290;2024-01-11T10:03:21;102478.84;;;6.45;86.30
28027;BME280;15344;52.342;-1.290;2024-01-11T10:05:47;102483.26;;;5.95;88.36
28027;BME280;15344;52.342;-1.290;2024-01-11T10:08:12;102485.83;;;5.68;90.83
28027;BME280;15344;52.342;-1.290;2024-01-11T10:10:37;102493.88;;;4.85;96.62
28027;BME280;15344;52.342;-1.290;2024-01-11T10:13:03;102493.36;;;5.85;93.87
28027;BME280;15344;52.342;-1.290;2024-01-11T10:15:28;102494.89;;;5.55;92.67
28027;BME280;15344;52.342;-1.290;2024-01-11T10:17:54;102497.10;;;5.50;94.43
28027;BME280;15344;52.342;-1.290;2024-01-11T10:20:19;102498.19;;;6.44;91.26
28027;BME280;15344;52.342;-1.290;2024-01-11T10:22:46;102498.60;;;6.00;93.28
28027;BME280;15344;52.342;-1.290;2024-01-11T10:25:12;102498.73;;;6.68;87.61
28027;BME280;15344;52.342;-1.290;2024-01-11T10:27:36;102496.61;;;6.65;88.68
28027;BME280;15344;52.342;-1.290;2024-01-11T10:30:01;102494.01;;;7.02;89.03
28027;BME280;15344;52.342;-1.290;2024-01-11T10:32:28;102492.15;;;7.43;83.73
28027;BME280;15344;52.342;-1.290;2024-01-11T10:34:52;102498.18;;;6.71;87.01
28027;BME280;15344;52.342;-1.290;2024-01-11T10:37:18;102491.68;;;5.89;91.44
28027;BME280;15344;52.342;-1.290;2024-01-11T10:39:44;102491.57;;;6.11;92.57
28027;BME280;15344;52.342;-1.290;2024-01-11T10:42:11;102498.66;;;6.17;92.79
28027;BME280;15344;52.342;-1.290;2024-01-11T10:44:35;102498.22;;;6.58;90.77
28027;BME280;15344;52.342;-1.290;2024-01-11T10:47:03;102491.63;;;7.08;86.39
28027;BME280;15344;52.342;-1.290;2024-01-11T10:49:26;102492.74;;;6.55;88.49
28027;BME280;15344;52.342;-1.290;2024-01-11T10:51:55;102490.19;;;6.82;87.12
28027;BME280;15344;52.342;-1.290;2024-01-11T10:54:17;102496.47;;;6.19;89.96
28027;BME280;15344;52.342;-1.290;2024-01-11T10:56:42;102492.57;;;5.23;97.04
28027;BME280;15344;52.342;-1.290;2024-01-11T10:59:08;102492.36;;;5.84;95.65
28027;BME280;15344;52.342;-1.290;2024-01-11T11:01:34;102492.85;;;5.62;93.98
28027;BME280;15344;52.342;-1.290;2024-01-11T11:03:59;102493.26;;;5.45;95.17
28027;BME280;15344;52.342;-1.290;2024-01-11T11:06:26;102494.73;;;6.55;91.42
28027;BME280;15344;52.342;-1.290;2024-01-11T11:08:50;102496.02;;;6.40;91.07
28027;BME280;15344;52.342;-1.290;2024-01-11T11:11:17;102491.86;;;7.55;86.68
28027;BME280;15344;52.342;-1.290;2024-01-11T11:13:42;102500.11;;;6.59;90.14
28027;BME280;15344;52.342;-1.290;2024-01-11T11:16:07;102498.54;;;8.13;85.09
28027;BME280;15344;52.342;-1.290;2024-01-11T11:18:32;102504.79;;;7.11;88.59
28027;BME280;15344;52.342;-1.290;2024-01-11T11:20:58;102502.90;;;5.46;93.43
28027;BME280;15344;52.342;-1.290;2024-01-11T11:23:23;102505.93;;;5.21;96.98
28027;BME280;15344;52.342;-1.290;2024-01-11T11:25:49;102510.20;;;6.90;91.28
28027;BME280;15344;52.342;-1.290;2024-01-11T11:28:15;102507.22;;;7.02;88.62
28027;BME280;15344;52.342;-1.290;2024-01-11T11:30:41;102506.84;;;7.93;84.89
28027;BME280;15344;52.342;-1.290;2024-01-11T11:33:10;102519.05;;;7.27;88.61
28027;BME280;15344;52.342;-1.290;2024-01-11T11:35:30;102504.49;;;7.71;86.07
28027;BME280;15344;52.342;-1.290;2024-01-11T11:37:56;102512.44;;;6.86;88.06
28027;BME280;15344;52.342;-1.290;2024-01-11T11:40:22;102514.65;;;6.41;88.30
28027;BME280;15344;52.342;-1.290;2024-01-11T11:42:47;102515.32;;;6.67;89.32
28027;BME280;15344;52.342;-1.290;2024-01-11T11:47:38;102507.58;;;6.08;94.76
28027;BME280;15344;52.342;-1.290;2024-01-11T11:50:05;102508.38;;;6.27;92.75
28027;BME280;15344;52.342;-1.290;2024-01-11T11:52:29;102510.60;;;6.73;91.42
28027;BME280;15344;52.342;-1.290;2024-01-11T11:54:56;102508.48;;;6.67;91.47
28027;BME280;15344;52.342;-1.290;2024-01-11T11:57:20;102501.68;;;7.85;86.04
28027;BME280;15344;52.342;-1.290;2024-01-11T11:59:45;102501.55;;;6.92;88.68
28027;BME280;15344;52.342;-1.290;2024-01-11T12:02:16;102500.13;;;8.32;85.18
28027;BME280;15344;52.342;-1.290;2024-01-11T12:04:39;102497.87;;;8.37;84.71
28027;BME280;15344;52.342;-1.290;2024-01-11T12:07:02;102498.22;;;7.58;87.30
28027;BME280;15344;52.342;-1.290;2024-01-11T12:09:27;102501.64;;;7.71;85.03
28027;BME280;15344;52.342;-1.290;2024-01-11T12:11:53;102498.38;;;8.21;83.57
28027;BME280;15344;52.342;-1.290;2024-01-11T12:14:19;102496.74;;;8.30;84.17
28027;BME280;15344;52.342;-1.290;2024-01-11T12:16:44;102495.67;;;7.68;85.59
28027;BME280;15344;52.342;-1.290;2024-01-11T12:19:10;102492.85;;;7.62;85.45
28027;BME280;15344;52.342;-1.290;2024-01-11T12:21:35;102490.20;;;7.64;85.10
28027;BME280;15344;52.342;-1.290;2024-01-11T12:24:00;102492.63;;;8.46;81.34
28027;BME280;15344;52.342;-1.290;2024-01-11T12:26:26;102490.32;;;8.03;81.63
28027;BME280;15344;52.342;-1.290;2024-01-11T12:28:52;102487.69;;;8.20;82.71
28027;BME280;15344;52.342;-1.290;2024-01-11T12:31:17;102483.76;;;9.17;79.78
28027;BME280;15344;52.342;-1.290;2024-01-11T12:33:42;102485.26;;;9.17;79.15
28027;BME280;15344;52.342;-1.290;2024-01-11T12:36:08;102485.21;;;8.35;80.63
28027;BME280;15344;52.342;-1.290;2024-01-11T12:38:34;102485.15;;;7.85;84.97
28027;BME280;15344;52.342;-1.290;2024-01-11T12:40:59;102482.29;;;8.61;82.01